createdAt,value
2022-08-30T00:01:16.189Z,100389.78
2022-08-30T00:03:46.358Z,100390.59
2022-08-30T00:06:15.943Z,100383.22
2022-08-30T00:08:43.782Z,100383.75
2022-08-30T00:11:14.358Z,100384.31
2022-08-30T00:13:44.650Z,100391.44
2022-08-30T00:16:13.280Z,100386.53
2022-08-30T00:18:41.208Z,100390.34
2022-08-30T00:21:08.794Z,100389.00
2022-08-30T00:23:36.287Z,100392.28
2022-08-30T00:26:04.035Z,100394.25
2022-08-30T00:28:32.126Z,100395.88
2022-08-30T00:30:59.290Z,100395.06
2022-08-30T00:33:26.482Z,100406.84
2022-08-30T00:35:53.842Z,100399.22
2022-08-30T00:38:22.760Z,100401.41
2022-08-30T00:40:50.937Z,100398.66
2022-08-30T00:43:25.629Z,100393.47
2022-08-30T00:45:56.045Z,100393.44
2022-08-30T00:48:23.567Z,100391.28
2022-08-30T00:50:56.161Z,100384.72
2022-08-30T00:53:31.081Z,100391.25
2022-08-30T00:56:00.021Z,100388.53
2022-08-30T00:58:37.377Z,100391.00
2022-08-30T01:01:06.408Z,100383.34
2022-08-30T01:03:35.145Z,100385.53
2022-08-30T01:06:03.650Z,100380.09
2022-08-30T01:08:30.818Z,100383.34
2022-08-30T01:10:58.192Z,100376.25
2022-08-30T01:13:27.045Z,100375.97
2022-08-30T01:15:55.887Z,100381.97
2022-08-30T01:18:24.141Z,100376.81
2022-08-30T01:21:10.909Z,100379.22
2022-08-30T01:23:43.615Z,100370.78
2022-08-30T01:26:11.952Z,100374.31
2022-08-30T01:28:41.610Z,100375.13
2022-08-30T01:31:08.721Z,100373.50
2022-08-30T01:33:38.752Z,100370.47
2022-08-30T01:36:11.839Z,100363.41
2022-08-30T01:38:51.645Z,100365.31
2022-08-30T01:41:18.586Z,100351.66
2022-08-30T01:43:46.320Z,100356.56
2022-08-30T01:46:15.034Z,100357.38
2022-08-30T01:48:50.266Z,100347.25
2022-08-30T01:51:23.647Z,100351.91
2022-08-30T01:53:50.811Z,100355.19
2022-08-30T01:56:18.755Z,100354.66
2022-08-30T01:58:46.608Z,100355.47
2022-08-30T02:01:16.682Z,100349.47
2022-08-30T02:03:44.983Z,100360.38
2022-08-30T02:06:14.707Z,100370.22
2022-08-30T02:08:41.789Z,100371.84
2022-08-30T02:11:09.899Z,100370.75
2022-08-30T02:13:38.134Z,100368.03
2022-08-30T02:16:07.986Z,100364.47
2022-08-30T02:18:36.570Z,100363.66
2022-08-30T02:21:03.882Z,100370.75
2022-08-30T02:23:31.402Z,100370.19
2022-08-30T02:25:58.874Z,100373.19
2022-08-30T02:28:26.064Z,100368.28
2022-08-30T02:30:54.283Z,100370.47
2022-08-30T02:33:21.518Z,100365.81
2022-08-30T02:35:48.520Z,100370.75
2022-08-30T02:38:15.634Z,100368.28
2022-08-30T02:40:47.152Z,100373.50
2022-08-30T02:43:14.307Z,100371.03
2022-08-30T02:45:41.458Z,100371.84
2022-08-30T02:48:08.509Z,100377.28
2022-08-30T02:50:35.527Z,100388.75
2022-08-30T02:53:02.583Z,100379.72
2022-08-30T02:55:29.702Z,100373.47
2022-08-30T02:57:56.691Z,100375.06
2022-08-30T03:00:23.787Z,100373.16
2022-08-30T03:02:50.891Z,100371.81
2022-08-30T03:05:18.542Z,100375.88
2022-08-30T03:07:47.592Z,100380.13
2022-08-30T03:10:15.868Z,100376.31
2022-08-30T03:12:43.173Z,100378.19
2022-08-30T03:15:13.322Z,100373.59
2022-08-30T03:17:41.452Z,100372.16
2022-08-30T03:20:10.070Z,100381.41
2022-08-30T03:22:37.066Z,100382.06
2022-08-30T03:25:05.252Z,100386.44
2022-08-30T03:27:32.293Z,100382.88
2022-08-30T03:29:59.246Z,100381.25
2022-08-30T03:32:26.422Z,100379.00
2022-08-30T03:34:53.687Z,100386.91
2022-08-30T03:37:24.336Z,100382.78
2022-08-30T03:39:57.441Z,100388.44
2022-08-30T03:42:25.172Z,100388.41
2022-08-30T03:44:52.258Z,100393.84
2022-08-30T03:47:20.451Z,100399.28
2022-08-30T03:49:47.603Z,100399.31
2022-08-30T03:52:14.586Z,100387.44
2022-08-30T03:54:41.639Z,100384.97
2022-08-30T03:57:08.636Z,100387.72
2022-08-30T03:59:43.023Z,100396.44
2022-08-30T04:02:10.011Z,100391.22
2022-08-30T04:04:37.258Z,100394.78
2022-08-30T04:07:04.354Z,100401.31
2022-08-30T04:09:31.625Z,100401.28
2022-08-30T04:12:00.338Z,100399.09
2022-08-30T04:14:27.409Z,100414.34
2022-08-30T04:16:54.402Z,100405.34
2022-08-30T04:19:21.504Z,100407.84
2022-08-30T04:21:48.596Z,100413.50
2022-08-30T04:24:15.907Z,100417.63
2022-08-30T04:26:43.205Z,100416.31
2022-08-30T04:29:12.398Z,100418.81
2022-08-30T04:31:39.442Z,100416.38
2022-08-30T04:34:06.403Z,100423.25
2022-08-30T04:36:33.611Z,100420.34
2022-08-30T04:39:00.617Z,100423.66
2022-08-30T04:41:27.582Z,100425.53
2022-08-30T04:43:54.542Z,100433.72
2022-08-30T04:46:21.801Z,100429.13
2022-08-30T04:48:50.197Z,100428.69
2022-08-30T04:51:17.917Z,100422.16
2022-08-30T04:53:45.725Z,100428.09
2022-08-30T04:56:19.864Z,100423.13
2022-08-30T04:58:48.421Z,100426.66
2022-08-30T05:01:27.433Z,100433.44
2022-08-30T05:03:57.577Z,100438.47
2022-08-30T05:06:27.617Z,100434.75
2022-08-30T05:08:55.324Z,100432.13
2022-08-30T05:11:23.033Z,100440.91
2022-08-30T05:13:50.619Z,100436.38
2022-08-30T05:16:20.566Z,100448.09
2022-08-30T05:18:49.594Z,100446.03
2022-08-30T05:21:18.908Z,100445.44
2022-08-30T05:23:46.329Z,100452.84
2022-08-30T05:26:19.854Z,100449.34
2022-08-30T05:28:47.094Z,100446.56
2022-08-30T05:31:28.690Z,100451.50
2022-08-30T05:33:57.001Z,100452.84
2022-08-30T05:36:27.121Z,100460.84
2022-08-30T05:38:55.384Z,100456.75
2022-08-30T05:41:26.278Z,100459.22
2022-08-30T05:43:55.949Z,100454.41
2022-08-30T05:46:23.409Z,100456.50
2022-08-30T05:48:51.479Z,100457.28
2022-08-30T05:51:22.714Z,100460.00
2022-08-30T05:53:52.455Z,100464.44
2022-08-30T05:56:24.741Z,100460.59
2022-08-30T05:58:53.665Z,100459.97
2022-08-30T06:01:20.568Z,100463.81
2022-08-30T06:03:48.082Z,100464.53
2022-08-30T06:06:16.057Z,100468.38
2022-08-30T06:08:45.797Z,100467.41
2022-08-30T06:11:14.876Z,100477.16
2022-08-30T06:13:42.177Z,100471.31
2022-08-30T06:16:15.501Z,100466.56
2022-08-30T06:18:42.940Z,100464.47
2022-08-30T06:21:26.394Z,100458.88
2022-08-30T06:23:57.198Z,100462.53
2022-08-30T06:26:24.926Z,100467.44
2022-08-30T06:28:52.240Z,100467.75
2022-08-30T06:31:21.041Z,100463.97
2022-08-30T06:33:48.634Z,100471.81
2022-08-30T06:36:19.514Z,100466.81
2022-08-30T06:38:50.487Z,100465.78
2022-08-30T06:41:19.630Z,100468.38
2022-08-30T06:43:49.200Z,100464.78
2022-08-30T06:46:22.829Z,100466.41
2022-08-30T06:48:50.062Z,100465.41
2022-08-30T06:51:22.705Z,100458.25
2022-08-30T06:53:50.298Z,100461.47
2022-08-30T06:56:18.959Z,100454.66
2022-08-30T06:58:47.064Z,100462.06
2022-08-30T07:01:16.983Z,100461.91
2022-08-30T07:03:44.302Z,100457.13
2022-08-30T07:06:11.690Z,100458.38
2022-08-30T07:08:38.879Z,100461.81
2022-08-30T07:11:07.730Z,100459.34
2022-08-30T07:13:35.846Z,100462.88
2022-08-30T07:16:10.805Z,100466.88
2022-08-30T07:18:55.202Z,100469.09
2022-08-30T07:21:49.404Z,100471.25
2022-08-30T07:24:20.975Z,100466.50
2022-08-30T07:26:52.208Z,100468.31
2022-08-30T07:29:21.392Z,100474.03
2022-08-30T07:31:48.644Z,100470.06
2022-08-30T07:34:15.754Z,100470.78
2022-08-30T07:36:43.016Z,100482.00
2022-08-30T07:39:10.146Z,100480.75
2022-08-30T07:41:39.141Z,100471.88
2022-08-30T07:44:10.028Z,100467.00
2022-08-30T07:46:38.731Z,100472.63
2022-08-30T07:49:11.250Z,100462.19
2022-08-30T07:51:40.166Z,100464.44
2022-08-30T07:54:07.447Z,100465.25
2022-08-30T07:56:35.434Z,100469.97
2022-08-30T07:59:02.568Z,100463.59
2022-08-30T08:01:29.790Z,100456.38
2022-08-30T08:03:58.240Z,100456.66
2022-08-30T08:06:25.624Z,100454.25
2022-08-30T08:08:54.453Z,100454.00
2022-08-30T08:11:28.348Z,100452.44
2022-08-30T08:13:57.553Z,100455.13
2022-08-30T08:16:27.382Z,100454.31
2022-08-30T08:18:54.948Z,100451.78
2022-08-30T08:21:23.785Z,100461.44
2022-08-30T08:23:51.553Z,100449.84
2022-08-30T08:26:19.507Z,100458.19
2022-08-30T08:28:47.328Z,100453.25
2022-08-30T08:31:31.498Z,100457.00
2022-08-30T08:34:04.392Z,100458.44
2022-08-30T08:36:32.301Z,100459.25
2022-08-30T08:38:59.695Z,100457.06
2022-08-30T08:41:49.510Z,100454.56
2022-08-30T08:44:42.887Z,100455.28
2022-08-30T08:47:19.885Z,100459.34
2022-08-30T08:49:51.667Z,100462.16
2022-08-30T08:52:43.965Z,100453.28
2022-08-30T08:55:14.317Z,100454.00
2022-08-30T08:57:41.964Z,100455.66
2022-08-30T09:00:12.159Z,100450.72
2022-08-30T09:02:46.787Z,100453.53
2022-08-30T09:05:20.722Z,100444.34
2022-08-30T09:08:00.870Z,100441.88
2022-08-30T09:10:49.310Z,100442.53
2022-08-30T09:13:19.099Z,100444.38
2022-08-30T09:15:48.965Z,100440.72
2022-08-30T09:18:20.122Z,100429.31
2022-08-30T09:20:49.754Z,100426.84
2022-08-30T09:23:17.494Z,100422.84
2022-08-30T09:25:53.466Z,100422.00
2022-08-30T09:28:32.486Z,100423.78
2022-08-30T09:31:02.042Z,100423.63
2022-08-30T09:33:29.234Z,100415.91
2022-08-30T09:35:57.564Z,100419.66
2022-08-30T09:38:30.347Z,100413.03
2022-08-30T09:41:00.752Z,100420.91
2022-08-30T09:43:30.546Z,100414.19
2022-08-30T09:46:00.505Z,100410.81
2022-08-30T09:48:42.511Z,100399.09
2022-08-30T09:51:12.696Z,100396.50
2022-08-30T09:54:18.837Z,100399.03
2022-08-30T09:57:13.301Z,100389.16
2022-08-30T09:59:56.397Z,100385.75
2022-08-30T10:02:59.889Z,100385.22
2022-08-30T10:05:47.758Z,100386.72
2022-08-30T10:08:46.745Z,100383.97
2022-08-30T10:11:28.778Z,100378.56
2022-08-30T10:14:30.233Z,100377.78
2022-08-30T10:17:13.727Z,100372.53
2022-08-30T10:20:31.919Z,100366.38
2022-08-30T10:23:04.755Z,100368.03
2022-08-30T10:25:39.317Z,100365.34
2022-08-30T10:28:22.820Z,100364.38
2022-08-30T10:30:57.471Z,100365.34
2022-08-30T10:33:36.055Z,100356.59
2022-08-30T10:36:10.534Z,100354.22
2022-08-30T10:38:40.650Z,100352.03
2022-08-30T10:41:15.712Z,100339.84
2022-08-30T10:44:12.018Z,100341.47
2022-08-30T10:46:54.501Z,100333.94
2022-08-30T10:49:24.426Z,100339.00
2022-08-30T10:52:00.569Z,100339.19
2022-08-30T10:54:33.144Z,100339.94
2022-08-30T10:57:00.545Z,100337.78
2022-08-30T10:59:29.065Z,100330.84
2022-08-30T11:02:08.421Z,100323.16
2022-08-30T11:04:47.527Z,100318.78
2022-08-30T11:07:52.374Z,100323.59
2022-08-30T11:10:31.743Z,100315.84
2022-08-30T11:13:14.607Z,100319.25
2022-08-30T11:15:57.523Z,100321.06
2022-08-30T11:18:25.841Z,100319.34
2022-08-30T11:20:56.494Z,100324.94
2022-08-30T11:23:35.152Z,100312.25
2022-08-30T11:26:04.185Z,100313.09
2022-08-30T11:28:37.174Z,100314.16
2022-08-30T11:31:12.776Z,100306.13
2022-08-30T11:33:59.335Z,100303.91
2022-08-30T11:36:46.000Z,100304.03
2022-08-30T11:39:13.705Z,100297.31
2022-08-30T11:41:47.861Z,100301.19
2022-08-30T11:44:31.454Z,100294.91
2022-08-30T11:47:37.066Z,100293.16
2022-08-30T11:50:13.596Z,100287.66
2022-08-30T11:52:54.612Z,100282.09
2022-08-30T11:55:55.082Z,100271.38
2022-08-30T11:58:48.392Z,100267.16
2022-08-30T12:01:51.730Z,100277.22
2022-08-30T12:04:17.508Z,100274.94
2022-08-30T12:06:49.817Z,100269.47
2022-08-30T12:09:23.712Z,100270.59
2022-08-30T12:12:12.607Z,100261.19
2022-08-30T12:14:52.803Z,100260.38
2022-08-30T12:18:00.409Z,100266.69
2022-08-30T12:20:40.000Z,100249.47
2022-08-30T12:23:46.540Z,100254.81
2022-08-30T12:26:29.410Z,100252.75
2022-08-30T12:29:12.224Z,100246.22
2022-08-30T12:31:43.291Z,100248.84
2022-08-30T12:34:20.424Z,100256.06
2022-08-30T12:37:04.455Z,100244.09
2022-08-30T12:39:36.065Z,100245.31
2022-08-30T12:42:23.231Z,100235.22
2022-08-30T12:44:58.741Z,100240.00
2022-08-30T12:47:44.306Z,100236.88
2022-08-30T12:50:16.803Z,100241.66
2022-08-30T12:52:48.051Z,100235.09
2022-08-30T12:55:20.905Z,100237.38
2022-08-30T12:58:10.262Z,100228.00
2022-08-30T13:00:41.083Z,100228.28
2022-08-30T13:03:41.190Z,100216.47
2022-08-30T13:06:08.826Z,100213.63
2022-08-30T13:08:45.904Z,100205.22
2022-08-30T13:11:20.112Z,100205.72
2022-08-30T13:13:52.162Z,100203.25
2022-08-30T13:16:22.635Z,100199.97
2022-08-30T13:18:53.263Z,100207.97
2022-08-30T13:21:31.250Z,100202.66
2022-08-30T13:24:06.298Z,100203.66
2022-08-30T13:26:37.252Z,100192.19
2022-08-30T13:29:10.489Z,100194.44
2022-08-30T13:31:38.127Z,100192.78
2022-08-30T13:34:05.480Z,100188.31
2022-08-30T13:36:36.158Z,100195.13
2022-08-30T13:39:06.108Z,100188.75
2022-08-30T13:41:33.793Z,100192.44
2022-08-30T13:44:16.637Z,100183.41
2022-08-30T13:46:54.631Z,100185.75
2022-08-30T13:49:47.107Z,100192.44
2022-08-30T13:52:22.892Z,100179.84
2022-08-30T13:54:54.881Z,100172.53
2022-08-30T14:00:19.219Z,100171.06
2022-08-30T14:02:54.273Z,100170.94
2022-08-30T14:05:48.172Z,100170.97
2022-08-30T14:11:11.928Z,100161.06
2022-08-30T14:16:31.660Z,100165.06
2022-08-30T14:19:00.700Z,100151.72
2022-08-30T14:21:28.252Z,100154.66
2022-08-30T14:23:57.612Z,100147.75
2022-08-30T14:26:33.262Z,100146.34
2022-08-30T14:29:09.182Z,100145.09
2022-08-30T14:31:38.074Z,100141.28
2022-08-30T14:34:06.735Z,100146.50
2022-08-30T14:36:35.936Z,100150.56
2022-08-30T14:39:08.419Z,100146.19
2022-08-30T14:41:43.478Z,100142.13
2022-08-30T14:44:12.663Z,100142.25
2022-08-30T14:46:40.418Z,100144.91
2022-08-30T14:49:07.686Z,100141.84
2022-08-30T14:51:39.344Z,100134.50
2022-08-30T14:54:06.550Z,100125.50
2022-08-30T14:56:33.834Z,100124.28
2022-08-30T14:59:03.299Z,100123.69
2022-08-30T15:01:31.451Z,100126.28
2022-08-30T15:04:00.558Z,100126.91
2022-08-30T15:06:28.266Z,100127.88
2022-08-30T15:08:55.973Z,100133.03
2022-08-30T15:11:25.921Z,100130.84
2022-08-30T15:13:54.135Z,100124.28
2022-08-30T15:16:27.941Z,100137.63
2022-08-30T15:18:55.488Z,100127.44
2022-08-30T15:21:28.306Z,100130.53
2022-08-30T15:23:55.847Z,100132.59
2022-08-30T15:26:23.098Z,100124.59
2022-08-30T15:28:51.590Z,100126.00
2022-08-30T15:31:20.589Z,100116.56
2022-08-30T15:33:50.407Z,100119.63
2022-08-30T15:36:17.768Z,100120.78
2022-08-30T15:38:45.225Z,100117.94
2022-08-30T15:41:13.322Z,100113.63
2022-08-30T15:43:43.669Z,100122.75
2022-08-30T15:46:32.353Z,100121.34
2022-08-30T15:49:02.057Z,100122.25
2022-08-30T15:51:30.811Z,100121.50
2022-08-30T15:54:09.744Z,100120.19
2022-08-30T15:56:41.794Z,100126.09
2022-08-30T15:59:10.195Z,100114.72
2022-08-30T16:01:39.230Z,100117.00
2022-08-30T16:04:06.352Z,100116.84
2022-08-30T16:06:37.481Z,100118.50
2022-08-30T16:09:08.231Z,100114.31
2022-08-30T16:11:36.375Z,100114.38
2022-08-30T16:14:06.314Z,100113.53
2022-08-30T16:16:33.835Z,100109.03
2022-08-30T16:19:01.974Z,100107.56
2022-08-30T16:21:32.052Z,100108.88
2022-08-30T16:24:01.582Z,100102.72
2022-08-30T16:26:30.060Z,100104.63
2022-08-30T16:28:57.831Z,100101.75
2022-08-30T16:31:26.884Z,100105.13
2022-08-30T16:34:02.266Z,100112.09
2022-08-30T16:36:32.101Z,100104.06
2022-08-30T16:39:00.719Z,100104.38
2022-08-30T16:41:28.483Z,100106.06
2022-08-30T16:43:56.170Z,100101.78
2022-08-30T16:46:27.445Z,100097.97
2022-08-30T16:49:01.661Z,100113.63
2022-08-30T16:51:31.631Z,100108.66
2022-08-30T16:54:02.662Z,100110.16
2022-08-30T16:56:32.293Z,100107.75
2022-08-30T16:59:02.805Z,100117.81
2022-08-30T17:01:34.873Z,100117.50
2022-08-30T17:04:03.838Z,100115.88
2022-08-30T17:06:31.201Z,100119.28
2022-08-30T17:08:59.312Z,100125.81
2022-08-30T17:11:27.017Z,100120.47
2022-08-30T17:13:54.143Z,100124.84
2022-08-30T17:16:22.334Z,100115.28
2022-08-30T17:18:59.513Z,100120.31
2022-08-30T17:21:28.720Z,100113.78
2022-08-30T17:23:58.461Z,100119.63
2022-08-30T17:26:29.881Z,100122.72
2022-08-30T17:28:56.987Z,100131.50
2022-08-30T17:31:29.260Z,100118.00
2022-08-30T17:34:02.893Z,100134.06
2022-08-30T17:36:32.954Z,100127.56
2022-08-30T17:39:10.724Z,100135.69
2022-08-30T17:41:49.183Z,100140.19
2022-08-30T17:44:25.569Z,100142.28
2022-08-30T17:46:54.000Z,100149.25
2022-08-30T17:49:22.079Z,100154.16
2022-08-30T17:51:56.690Z,100168.66
2022-08-30T17:54:26.137Z,100169.31
2022-08-30T17:56:54.785Z,100180.13
2022-08-30T17:59:25.149Z,100183.41
2022-08-30T18:01:54.660Z,100188.53
2022-08-30T18:04:22.192Z,100190.13
2022-08-30T18:06:52.483Z,100203.38
2022-08-30T18:09:19.602Z,100202.88
2022-08-30T18:11:48.437Z,100205.63
2022-08-30T18:14:16.427Z,100214.59
2022-08-30T18:16:49.982Z,100217.34
2022-08-30T18:19:23.437Z,100213.34
2022-08-30T18:21:51.736Z,100222.53
2022-08-30T18:24:19.382Z,100230.38
2022-08-30T18:26:46.761Z,100237.75
2022-08-30T18:29:14.240Z,100233.19
2022-08-30T18:31:41.436Z,100239.50
2022-08-30T18:34:12.535Z,100241.25
2022-08-30T18:36:41.456Z,100239.56
2022-08-30T18:39:08.680Z,100242.44
2022-08-30T18:41:43.041Z,100248.28
2022-08-30T18:44:27.403Z,100249.66
2022-08-30T18:46:57.646Z,100251.72
2022-08-30T18:49:26.617Z,100255.59
2022-08-30T18:51:54.508Z,100255.50
2022-08-30T18:54:21.667Z,100271.63
2022-08-30T18:56:50.033Z,100273.06
2022-08-30T18:59:19.169Z,100271.22
2022-08-30T19:01:48.699Z,100260.22
2022-08-30T19:04:30.119Z,100263.78
2022-08-30T19:07:05.426Z,100254.81
2022-08-30T19:09:32.740Z,100270.13
2022-08-30T19:11:59.830Z,100270.19
2022-08-30T19:14:28.168Z,100271.41
2022-08-30T19:16:56.623Z,100271.91
2022-08-30T19:19:23.861Z,100278.88
2022-08-30T19:21:51.845Z,100273.28
2022-08-30T19:24:20.461Z,100266.94
2022-08-30T19:26:48.536Z,100271.41
2022-08-30T19:29:15.664Z,100258.88
2022-08-30T19:31:44.110Z,100271.84
2022-08-30T19:34:12.107Z,100264.72
2022-08-30T19:36:39.516Z,100264.41
2022-08-30T19:39:06.891Z,100262.13
2022-08-30T19:41:34.010Z,100261.03
2022-08-30T19:44:03.118Z,100254.81
2022-08-30T19:46:32.402Z,100256.03
2022-08-30T19:49:01.279Z,100255.72
2022-08-30T19:51:28.290Z,100254.91
2022-08-30T19:53:56.368Z,100253.59
2022-08-30T19:56:26.583Z,100251.25
2022-08-30T19:58:53.780Z,100253.50
2022-08-30T20:01:33.230Z,100250.22
2022-08-30T20:04:04.456Z,100250.75
2022-08-30T20:06:32.551Z,100251.03
2022-08-30T20:09:00.522Z,100240.34
2022-08-30T20:11:28.131Z,100245.84
2022-08-30T20:13:55.663Z,100240.00
2022-08-30T20:16:33.001Z,100242.53
2022-08-30T20:19:06.167Z,100243.72
2022-08-30T20:21:34.564Z,100241.81
2022-08-30T20:24:02.924Z,100231.94
2022-08-30T20:26:33.869Z,100228.09
2022-08-30T20:29:05.653Z,100223.19
2022-08-30T20:31:34.444Z,100224.78
2022-08-30T20:34:02.075Z,100231.72
2022-08-30T20:36:29.267Z,100228.19
2022-08-30T20:38:56.834Z,100235.19
2022-08-30T20:41:24.786Z,100237.53
2022-08-30T20:43:53.039Z,100237.00
2022-08-30T20:46:21.131Z,100236.97
2022-08-30T20:48:48.425Z,100247.16
2022-08-30T20:51:19.966Z,100242.56
2022-08-30T20:53:47.090Z,100237.88
2022-08-30T20:56:16.910Z,100234.44
2022-08-30T20:58:45.225Z,100225.88
2022-08-30T21:01:14.523Z,100231.19
2022-08-30T21:03:42.844Z,100230.78
2022-08-30T21:06:11.839Z,100237.28
2022-08-30T21:08:39.977Z,100235.13
2022-08-30T21:11:07.159Z,100242.50
2022-08-30T21:13:34.574Z,100244.13
2022-08-30T21:16:03.449Z,100241.72
2022-08-30T21:18:33.092Z,100238.53
2022-08-30T21:21:21.375Z,100237.72
2022-08-30T21:23:49.937Z,100238.41
2022-08-30T21:26:19.062Z,100242.41
2022-08-30T21:28:48.470Z,100240.97
2022-08-30T21:31:17.198Z,100253.38
2022-08-30T21:33:44.779Z,100237.13
2022-08-30T21:36:33.652Z,100241.13
2022-08-30T21:39:01.142Z,100242.84
2022-08-30T21:41:29.528Z,100242.41
2022-08-30T21:43:58.404Z,100235.88
2022-08-30T21:46:27.447Z,100249.06
2022-08-30T21:48:56.955Z,100238.69
2022-08-30T21:51:23.885Z,100249.03
2022-08-30T21:53:50.847Z,100239.34
2022-08-30T21:56:22.092Z,100242.00
2022-08-30T21:58:50.461Z,100244.19
2022-08-30T22:01:23.666Z,100247.63
2022-08-30T22:03:52.822Z,100246.19
2022-08-30T22:06:20.633Z,100245.31
2022-08-30T22:08:50.044Z,100247.28
2022-08-30T22:11:18.986Z,100253.47
2022-08-30T22:13:48.247Z,100251.59
2022-08-30T22:16:16.933Z,100240.41
2022-08-30T22:18:44.688Z,100245.03
2022-08-30T22:21:15.198Z,100244.16
2022-08-30T22:23:42.461Z,100232.34
2022-08-30T22:26:10.451Z,100239.22
2022-08-30T22:28:37.900Z,100237.94
2022-08-30T22:31:08.032Z,100244.41
2022-08-30T22:33:35.898Z,100240.75
2022-08-30T22:36:19.046Z,100241.13
2022-08-30T22:38:46.148Z,100236.50
2022-08-30T22:41:17.258Z,100232.41
2022-08-30T22:43:45.400Z,100237.09
2022-08-30T22:46:12.608Z,100228.47
2022-08-30T22:48:41.657Z,100227.88
2022-08-30T22:51:10.229Z,100224.56
2022-08-30T22:53:37.372Z,100224.31
2022-08-30T22:56:19.532Z,100221.59
2022-08-30T22:58:47.442Z,100218.72
2022-08-30T23:01:38.703Z,100222.63
2022-08-30T23:04:07.919Z,100220.78
2022-08-30T23:06:35.010Z,100221.63
2022-08-30T23:09:02.639Z,100223.00
2022-08-30T23:11:32.329Z,100216.25
2022-08-30T23:14:02.302Z,100217.41
2022-08-30T23:16:30.122Z,100213.03
2022-08-30T23:18:57.413Z,100217.16
2022-08-30T23:21:28.480Z,100209.28
2022-08-30T23:24:15.310Z,100212.31
2022-08-30T23:27:03.214Z,100218.66
2022-08-30T23:29:49.409Z,100212.41
2022-08-30T23:32:35.338Z,100213.50
2022-08-30T23:35:20.886Z,100213.53
2022-08-30T23:38:12.486Z,100219.59
2022-08-30T23:40:58.528Z,100213.84
2022-08-30T23:43:44.154Z,100209.72
2022-08-30T23:46:29.826Z,100215.53
2022-08-30T23:49:15.552Z,100212.88
2022-08-30T23:52:01.157Z,100213.94
2022-08-30T23:54:46.828Z,100218.03
2022-08-30T23:57:32.285Z,100214.78
